Time;durP1;ratioP1;P1;durP2;ratioP2;P2;SDS_P1;SDS_P2;PMS_P1;PMS_P2;Temp;Humidity;BMP_temperature;BMP_pressure;BME280_temperature;BME280_humidity;BME280_pressure;Samples;Min_cycle;Max_cycle;Signal;HPM_P1;HPM_P2
2022/02/09 00:02:23;;;;;;;3.60;1.80;;;12.90;99.90;;;;;;5011915;28;20596;-77
2022/02/09 00:07:46;;;;;;;2.95;1.85;;;12.90;99.90;;;;;;5003714;28;20535;-78
2022/02/09 00:10:12;;;;;;;2.60;1.73;;;12.90;99.90;;;;;;5007198;28;20183;-78
2022/02/09 00:18:12;;;;;;;2.10;1.65;;;12.90;99.90;;;;;;5002070;28;20631;-78
2022/02/09 00:37:16;;;;;;;2.42;2.22;;;12.80;99.90;;;;;;4986655;28;20640;-77
2022/02/09 00:39:39;;;;;;;3.20;2.20;;;12.80;99.90;;;;;;4988464;28;20647;-77
2022/02/09 00:42:41;;;;;;;3.92;2.45;;;12.80;99.90;;;;;;5011465;28;20600;-77
2022/02/09 01:39:10;;;;;;;5.30;3.50;;;12.70;99.90;;;;;;5000104;28;20179;-77
2022/02/09 01:55:44;;;;;;;6.93;4.25;;;12.60;99.90;;;;;;5002889;28;20548;-77
2022/02/09 01:58:10;;;;;;;6.15;4.18;;;12.60;99.90;;;;;;5002156;28;20209;-77
2022/02/09 02:00:36;;;;;;;6.77;4.13;;;12.60;99.90;;;;;;5002221;28;20171;-77
2022/02/09 02:03:02;;;;;;;5.20;3.70;;;12.60;99.90;;;;;;5002446;28;20582;-77
2022/02/09 02:05:28;;;;;;;6.40;4.27;;;12.60;99.90;;;;;;4992962;28;20198;-77
2022/02/09 02:07:57;;;;;;;4.17;3.87;;;12.60;99.90;;;;;;4979182;28;20589;-78
2022/02/09 02:10:57;;;;;;;5.07;4.53;;;12.60;99.90;;;;;;4986813;28;20194;-77
2022/02/09 02:13:42;;;;;;;4.35;3.95;;;12.70;99.90;;;;;;4999920;28;20983;-78
2022/02/09 02:16:19;;;;;;;4.20;3.80;;;12.60;99.90;;;;;;4966792;28;20621;-78
2022/02/09 02:18:52;;;;;;;5.65;4.40;;;12.60;99.90;;;;;;5003296;28;20174;-78
2022/02/09 02:21:38;;;;;;;4.20;3.80;;;12.70;99.90;;;;;;5004209;28;20225;-77
2022/02/09 02:24:31;;;;;;;3.95;3.47;;;12.70;99.90;;;;;;4983258;28;20186;-78
2022/02/09 02:57:16;;;;;;;3.90;3.22;;;12.70;99.90;;;;;;4983437;28;20226;-77
2022/02/09 03:13:05;;;;;;;3.15;2.85;;;12.70;99.90;;;;;;5001152;28;20577;-79
2022/02/09 03:15:43;;;;;;;2.97;2.58;;;12.70;99.90;;;;;;4985577;28;20202;-78
2022/02/09 03:18:35;;;;;;;5.40;2.70;;;12.70;99.90;;;;;;4969794;28;20217;-78
2022/02/09 03:21:24;;;;;;;3.58;2.35;;;12.70;99.90;;;;;;4998372;28;20191;-79
2022/02/09 03:23:58;;;;;;;3.00;2.28;;;12.70;99.90;;;;;;5000349;28;20185;-79
2022/02/09 03:26:54;;;;;;;2.40;2.20;;;12.70;99.90;;;;;;5000268;28;20199;-78
2022/02/09 03:56:30;;;;;;;2.53;1.60;;;12.60;99.90;;;;;;4999993;28;20211;-78
2022/02/09 03:58:56;;;;;;;2.88;1.98;;;12.70;99.90;;;;;;4985620;28;20609;-78
2022/02/09 04:01:26;;;;;;;2.50;1.77;;;12.70;99.90;;;;;;4987932;28;20541;-78
2022/02/09 04:03:52;;;;;;;1.60;1.50;;;12.60;99.90;;;;;;5003511;28;20221;-79
2022/02/09 04:06:18;;;;;;;1.83;1.30;;;12.70;99.90;;;;;;5005725;28;20221;-78
2022/02/09 04:08:53;;;;;;;2.13;1.50;;;12.70;99.90;;;;;;5003510;28;20178;-78
2022/02/09 04:11:32;;;;;;;2.00;1.50;;;12.70;99.90;;;;;;5001262;28;20593;-78
2022/02/09 04:14:10;;;;;;;2.40;1.50;;;12.70;99.90;;;;;;5004160;28;20643;-78
2022/02/09 04:19:25;;;;;;;2.40;1.45;;;12.70;99.90;;;;;;4985519;28;20179;-78
2022/02/09 04:57:06;;;;;;;2.28;1.73;;;12.50;99.90;;;;;;5003730;28;20297;-78
2022/02/09 04:59:56;;;;;;;3.00;2.10;;;12.50;99.90;;;;;;4995583;28;20557;-79
2022/02/09 05:21:23;;;;;;;2.63;1.83;;;12.60;99.90;;;;;;5002118;28;20190;-78
2022/02/09 05:24:04;;;;;;;2.55;2.20;;;12.60;99.90;;;;;;5002979;28;20194;-78
2022/02/09 05:26:39;;;;;;;2.33;1.77;;;12.50;99.90;;;;;;5002177;28;20289;-79
2022/02/09 05:29:05;;;;;;;3.05;1.92;;;12.60;99.90;;;;;;5007545;28;20178;-78
2022/02/09 05:31:31;;;;;;;2.30;2.10;;;12.60;99.90;;;;;;5008303;28;20173;-78
2022/02/09 05:33:57;;;;;;;3.80;2.00;;;12.60;99.90;;;;;;5011285;28;20570;-78
2022/02/09 05:36:23;;;;;;;3.00;2.07;;;12.60;99.90;;;;;;5009825;28;20636;-78
2022/02/09 05:38:48;;;;;;;3.33;2.57;;;12.60;99.90;;;;;;5011161;28;20174;-78
2022/02/09 05:41:14;;;;;;;3.00;2.33;;;12.60;99.90;;;;;;5003190;28;20174;-78
2022/02/09 05:43:40;;;;;;;2.23;1.90;;;12.60;99.90;;;;;;5001335;28;20166;-78
2022/02/09 05:46:42;;;;;;;3.27;2.20;;;12.60;99.90;;;;;;5004136;28;20202;-78
2022/02/09 05:51:48;;;;;;;2.97;2.05;;;12.60;99.90;;;;;;5001436;28;20578;-77
2022/02/09 05:56:47;;;;;;;2.77;2.23;;;12.60;99.90;;;;;;5010547;28;20206;-77
2022/02/09 05:59:27;;;;;;;2.28;2.08;;;12.70;99.90;;;;;;4996339;28;20214;-78
2022/02/09 06:01:52;;;;;;;2.37;2.07;;;12.60;99.90;;;;;;5001458;28;20232;-78
2022/02/09 06:04:18;;;;;;;2.80;1.87;;;12.60;99.90;;;;;;4983107;28;20593;-79
2022/02/09 06:06:44;;;;;;;2.40;2.20;;;12.60;99.90;;;;;;4988518;28;20274;-79
2022/02/09 06:09:10;;;;;;;4.37;2.60;;;12.60;99.90;;;;;;4997213;28;20183;-79
2022/02/09 06:12:05;;;;;;;2.88;2.13;;;12.60;99.90;;;;;;5002760;28;20236;-78
2022/02/09 06:19:49;;;;;;;3.00;2.20;;;12.60;99.90;;;;;;5003264;28;20178;-78
2022/02/09 06:22:15;;;;;;;2.50;2.30;;;12.60;99.90;;;;;;5000395;28;20187;-78
2022/02/09 06:24:42;;;;;;;3.67;2.00;;;12.60;99.90;;;;;;5003807;28;20201;-78
2022/02/09 06:27:12;;;;;;;2.25;2.05;;;12.60;99.90;;;;;;5000051;28;20210;-78
2022/02/09 06:29:40;;;;;;;3.28;1.92;;;12.60;99.90;;;;;;5002896;28;20262;-79
2022/02/09 06:32:09;;;;;;;2.90;2.00;;;12.60;99.90;;;;;;4983184;28;20189;-78
2022/02/09 06:34:39;;;;;;;5.80;2.20;;;12.60;99.90;;;;;;5002593;28;20182;-78
2022/02/09 06:37:16;;;;;;;2.75;2.35;;;12.50;99.90;;;;;;4993794;28;20656;-78
2022/02/09 06:39:45;;;;;;;2.38;1.92;;;12.60;99.90;;;;;;4991656;28;20206;-79
2022/02/09 06:42:12;;;;;;;2.95;1.70;;;12.60;99.90;;;;;;4966594;28;20183;-77
2022/02/09 06:44:37;;;;;;;4.32;2.65;;;12.60;99.90;;;;;;5003308;28;20179;-78
2022/02/09 06:47:04;;;;;;;1.93;1.73;;;12.60;99.90;;;;;;5002832;28;20218;-77
2022/02/09 06:49:31;;;;;;;2.40;2.20;;;12.60;99.90;;;;;;5003305;28;20318;-78
2022/02/09 06:51:57;;;;;;;2.63;2.42;;;12.60;99.90;;;;;;4999276;28;20240;-77
2022/02/09 06:54:29;;;;;;;3.85;2.17;;;12.60;99.90;;;;;;5003836;28;20194;-78
2022/02/09 06:59:34;;;;;;;3.00;2.13;;;12.60;99.90;;;;;;4982120;28;20294;-78
2022/02/09 07:02:05;;;;;;;3.83;2.60;;;12.60;99.90;;;;;;5001422;28;20588;-77
2022/02/09 07:04:32;;;;;;;4.40;1.95;;;12.60;99.90;;;;;;5004155;28;20179;-76
2022/02/09 07:06:59;;;;;;;1.92;1.50;;;12.60;99.90;;;;;;5001778;28;20257;-76
2022/02/09 07:09:27;;;;;;;2.10;1.85;;;12.60;99.90;;;;;;5000598;28;20186;-76
2022/02/09 07:11:54;;;;;;;3.08;2.25;;;12.60;99.90;;;;;;5003545;28;20220;-76
2022/02/09 07:14:24;;;;;;;3.45;2.70;;;12.70;99.90;;;;;;5003784;28;20194;-76
2022/02/09 07:16:50;;;;;;;4.10;2.03;;;12.70;99.90;;;;;;5004756;28;20210;-76
2022/02/09 07:19:16;;;;;;;2.45;2.00;;;12.70;99.90;;;;;;4999577;28;20264;-77
2022/02/09 07:21:42;;;;;;;3.13;2.23;;;12.70;99.90;;;;;;5006085;28;20222;-76
2022/02/09 07:24:15;;;;;;;3.92;2.17;;;12.70;99.90;;;;;;4990360;28;20586;-76
2022/02/09 07:29:11;;;;;;;2.97;2.50;;;12.80;99.90;;;;;;5004553;28;20183;-76
2022/02/09 07:31:37;;;;;;;3.10;2.58;;;12.80;99.90;;;;;;4999649;28;20193;-77
2022/02/09 07:34:03;;;;;;;3.20;2.10;;;12.80;99.90;;;;;;4977086;28;20644;-76
2022/02/09 07:36:31;;;;;;;4.18;2.65;;;12.80;99.90;;;;;;5009172;28;20645;-76
2022/02/09 07:39:02;;;;;;;3.58;2.05;;;12.80;99.90;;;;;;5006271;28;20179;-76
2022/02/09 07:41:28;;;;;;;3.67;1.73;;;12.80;99.90;;;;;;5005984;28;20178;-76
2022/02/09 07:46:40;;;;;;;2.75;1.88;;;12.80;99.90;;;;;;5003153;28;20264;-75
2022/02/09 07:54:22;;;;;;;3.55;2.17;;;12.90;99.90;;;;;;5005687;28;20185;-77
2022/02/09 07:56:48;;;;;;;2.45;2.03;;;13.00;99.90;;;;;;4974664;28;20213;-76
2022/02/09 07:59:17;;;;;;;3.50;2.47;;;13.00;99.90;;;;;;5008638;28;20710;-77
2022/02/09 08:01:44;;;;;;;3.35;2.60;;;13.10;99.90;;;;;;5013144;28;20660;-76
2022/02/09 08:04:10;;;;;;;5.43;2.13;;;13.10;99.90;;;;;;4993670;28;20549;-77
2022/02/09 08:06:37;;;;;;;2.58;1.83;;;13.10;99.90;;;;;;4988566;28;20629;-76
2022/02/09 08:09:06;;;;;;;3.42;2.55;;;13.10;99.90;;;;;;4989863;28;20595;-77
2022/02/09 08:28:18;;;;;;;2.57;1.60;;;13.30;99.90;;;;;;5002071;28;20607;-75
2022/02/09 08:30:58;;;;;;;3.00;1.80;;;13.30;99.90;;;;;;5008412;28;20658;-76
2022/02/09 08:33:24;;;;;;;2.37;1.67;;;13.30;99.90;;;;;;5004871;28;20922;-76
2022/02/09 08:35:52;;;;;;;3.30;1.67;;;13.30;99.90;;;;;;5009154;28;20736;-76
2022/02/09 08:38:18;;;;;;;2.67;1.43;;;13.30;99.90;;;;;;5003271;28;20221;-76
2022/02/09 08:40:46;;;;;;;2.43;1.60;;;13.30;99.90;;;;;;5002815;28;20594;-76
2022/02/09 08:43:12;;;;;;;4.77;2.00;;;13.30;99.90;;;;;;4989338;28;20604;-76
2022/02/09 08:45:39;;;;;;;3.57;1.57;;;13.30;99.90;;;;;;5007917;28;20633;-76
2022/02/09 08:48:06;;;;;;;2.20;1.63;;;13.30;99.90;;;;;;4991325;28;20597;-75
2022/02/09 08:50:32;;;;;;;3.33;1.60;;;13.30;99.90;;;;;;5003150;28;20574;-76
2022/02/09 08:52:58;;;;;;;2.87;2.00;;;13.30;99.90;;;;;;5007394;28;20763;-76
2022/02/09 08:55:24;;;;;;;2.83;1.90;;;13.30;99.90;;;;;;5003272;28;21108;-76
2022/02/09 08:57:53;;;;;;;3.23;2.00;;;13.40;99.90;;;;;;5006872;28;20628;-75
2022/02/09 09:00:26;;;;;;;2.43;1.60;;;13.40;99.90;;;;;;5005817;28;20638;-76
2022/02/09 09:03:06;;;;;;;2.03;1.47;;;13.30;99.90;;;;;;4993065;28;20596;-75
2022/02/09 09:05:51;;;;;;;2.15;1.40;;;13.30;99.90;;;;;;4989438;28;20613;-76
2022/02/09 10:02:48;;;;;;;6.93;3.78;;;13.20;99.90;;;;;;5007697;28;20604;-76
2022/02/09 10:33:36;;;;;;;4.93;3.05;;;13.30;99.90;;;;;;5008316;28;20617;-76
2022/02/09 10:36:12;;;;;;;3.30;2.77;;;13.30;99.90;;;;;;5003315;28;20198;-76
2022/02/09 10:38:41;;;;;;;12.50;2.80;;;13.40;99.90;;;;;;5000205;28;21074;-76
2022/02/09 10:41:19;;;;;;;4.13;2.87;;;13.40;99.90;;;;;;4995308;28;21110;-77
2022/02/09 10:43:46;;;;;;;3.90;2.80;;;13.40;99.90;;;;;;5000882;28;20570;-77
2022/02/09 10:46:16;;;;;;;4.47;3.23;;;13.50;99.90;;;;;;5007709;28;20616;-76
2022/02/09 10:49:01;;;;;;;5.17;2.90;;;13.50;99.90;;;;;;5010053;28;20581;-76
2022/02/09 10:54:14;;;;;;;4.37;2.23;;;13.50;99.90;;;;;;4997960;28;21126;-76
2022/02/09 10:56:43;;;;;;;4.70;2.30;;;13.60;99.90;;;;;;4995607;28;20652;-76
2022/02/09 10:59:11;;;;;;;4.30;2.73;;;13.60;99.90;;;;;;5008645;28;20626;-77
2022/02/09 11:01:38;;;;;;;3.40;1.80;;;13.60;99.90;;;;;;5002315;28;20574;-77
2022/02/09 11:04:05;;;;;;;7.37;3.10;;;13.60;99.90;;;;;;4986382;28;20667;-75
2022/02/09 11:06:36;;;;;;;3.10;2.40;;;13.70;99.90;;;;;;4985180;28;20625;-75
2022/02/09 11:09:04;;;;;;;6.40;2.00;;;13.70;99.90;;;;;;5005202;28;20193;-76
2022/02/09 11:11:30;;;;;;;5.73;1.93;;;13.70;99.90;;;;;;5014456;28;20913;-75
2022/02/09 11:13:56;;;;;;;4.33;2.13;;;13.70;99.90;;;;;;5014553;28;20601;-76
2022/02/09 11:16:25;;;;;;;3.70;1.75;;;13.80;99.90;;;;;;5000409;28;20606;-75
2022/02/09 11:18:54;;;;;;;2.60;1.93;;;13.80;99.90;;;;;;5015347;28;20170;-78
2022/02/09 11:21:31;;;;;;;7.30;3.60;;;13.90;99.90;;;;;;5021406;28;20598;-75
2022/02/09 11:24:00;;;;;;;3.67;2.20;;;13.90;99.90;;;;;;5002325;28;20697;-75
2022/02/09 11:26:55;;;;;;;4.00;1.90;;;13.90;99.90;;;;;;5019519;28;20623;-74
2022/02/09 11:32:24;;;;;;;3.80;1.80;;;13.90;99.90;;;;;;5010912;28;20582;-77
2022/02/09 11:35:01;;;;;;;2.77;1.33;;;13.90;99.90;;;;;;5009114;28;20589;-77
2022/02/09 11:41:05;;;;;;;3.47;1.80;;;14.00;99.90;;;;;;5010894;28;20631;-76
2022/02/09 11:43:38;;;;;;;3.40;1.73;;;14.00;99.90;;;;;;4979735;28;20592;-77
2022/02/09 11:54:56;;;;;;;5.07;2.40;;;14.20;99.90;;;;;;5003120;28;20585;-77
2022/02/09 12:00:37;;;;;;;4.17;1.80;;;14.20;99.90;;;;;;5021484;28;20688;-77
2022/02/09 12:12:02;;;;;;;3.63;1.90;;;14.30;99.90;;;;;;5001861;28;20581;-76
2022/02/09 12:15:31;;;;;;;4.70;1.93;;;14.30;99.90;;;;;;4989246;28;20573;-77
2022/02/09 12:20:32;;;;;;;6.80;3.37;;;14.40;99.90;;;;;;5004643;28;20585;-76
2022/02/09 12:23:25;;;;;;;5.80;3.23;;;14.40;99.90;;;;;;5011642;28;20585;-76
2022/02/09 12:25:51;;;;;;;7.90;2.77;;;14.40;99.90;;;;;;4987742;28;20668;-76
2022/02/09 12:28:19;;;;;;;11.20;2.67;;;14.50;99.90;;;;;;5001231;28;20569;-77
2022/02/09 12:30:46;;;;;;;5.17;2.57;;;14.50;99.90;;;;;;5009934;28;21148;-77
2022/02/09 12:33:47;;;;;;;6.87;3.20;;;14.50;99.90;;;;;;5003996;28;20586;-78
2022/02/09 12:36:13;;;;;;;7.73;3.83;;;14.50;99.90;;;;;;5002763;28;20647;-75
2022/02/09 12:38:39;;;;;;;9.77;3.73;;;14.60;99.90;;;;;;5002471;28;20581;-76
2022/02/09 12:41:19;;;;;;;8.50;3.87;;;14.60;99.90;;;;;;5004183;28;20208;-77
2022/02/09 12:43:50;;;;;;;7.97;4.03;;;14.70;99.90;;;;;;4988512;28;20590;-77
2022/02/09 12:46:18;;;;;;;12.00;6.07;;;14.70;99.90;;;;;;4976353;28;20622;-77
2022/02/09 12:48:44;;;;;;;11.70;4.50;;;14.70;99.90;;;;;;5005412;28;20588;-76
2022/02/09 12:51:20;;;;;;;10.13;4.10;;;14.70;99.90;;;;;;5000550;28;20578;-77
2022/02/09 12:53:48;;;;;;;8.37;4.70;;;14.70;99.90;;;;;;5008560;28;20595;-76
2022/02/09 12:56:25;;;;;;;9.20;3.33;;;14.80;99.90;;;;;;5012044;28;20832;-76
2022/02/09 12:58:55;;;;;;;7.60;3.27;;;14.80;99.90;;;;;;4991753;28;20582;-75
2022/02/09 13:01:21;;;;;;;6.23;2.37;;;14.70;99.90;;;;;;4987012;28;20566;-76
2022/02/09 13:03:47;;;;;;;7.57;2.60;;;14.70;99.90;;;;;;5001665;28;20705;-76
2022/02/09 13:06:12;;;;;;;6.80;2.40;;;14.70;99.90;;;;;;5001190;28;20256;-77
2022/02/09 13:08:38;;;;;;;4.40;2.00;;;14.70;99.90;;;;;;4991147;28;20190;-76
2022/02/09 13:13:41;;;;;;;8.20;2.53;;;14.80;99.90;;;;;;5031301;28;20168;-80
2022/02/09 13:16:14;;;;;;;3.80;1.90;;;14.70;99.90;;;;;;5011671;28;20620;-78
2022/02/09 13:19:02;;;;;;;6.90;2.67;;;14.70;99.90;;;;;;5029997;28;20581;-79
2022/02/09 14:11:26;;;;;;;6.73;2.60;;;15.20;99.90;;;;;;4971600;28;20675;-78
2022/02/09 14:49:09;;;;;;;7.10;2.57;;;15.20;99.90;;;;;;5000046;28;20610;-80
2022/02/09 14:56:07;;;;;;;5.60;1.97;;;15.20;99.90;;;;;;5003147;28;20620;-79
2022/02/09 14:58:40;;;;;;;4.63;2.23;;;15.10;99.90;;;;;;4994018;28;20676;-78
2022/02/09 15:08:43;;;;;;;5.07;2.27;;;15.10;99.90;;;;;;4993250;28;20656;-78
2022/02/09 15:11:22;;;;;;;4.47;2.00;;;15.00;99.90;;;;;;4985726;28;20581;-77
2022/02/09 15:16:26;;;;;;;3.77;1.60;;;15.00;99.90;;;;;;5000498;28;20644;-77
2022/02/09 15:24:03;;;;;;;4.27;1.63;;;14.90;99.90;;;;;;4979747;28;20601;-77
2022/02/09 15:26:29;;;;;;;3.00;1.40;;;14.90;99.90;;;;;;4986487;28;20577;-77
2022/02/09 15:28:57;;;;;;;4.43;2.00;;;14.90;99.90;;;;;;4998451;28;20672;-77
2022/02/09 15:34:00;;;;;;;9.63;4.33;;;14.80;99.90;;;;;;5008305;28;20584;-79
2022/02/09 15:36:46;;;;;;;6.07;3.03;;;14.80;99.90;;;;;;4998727;28;20284;-74
2022/02/09 15:39:13;;;;;;;5.53;3.53;;;14.70;99.90;;;;;;4999825;28;20614;-76
2022/02/09 16:06:18;;;;;;;4.30;2.43;;;14.40;99.90;;;;;;5013914;28;20620;-77
2022/02/09 16:16:27;;;;;;;4.60;2.70;;;14.20;99.90;;;;;;5025411;28;20577;-77
2022/02/09 16:20:01;;;;;;;5.30;3.07;;;13.90;99.90;;;;;;5014067;28;21021;-77
2022/02/09 16:22:34;;;;;;;4.65;2.88;;;13.80;99.90;;;;;;4990983;28;21051;-77
2022/02/09 16:46:40;;;;;;;2.10;1.50;;;13.00;99.90;;;;;;4988081;28;20260;-77
2022/02/09 16:51:42;;;;;;;4.60;2.23;;;12.90;99.90;;;;;;5004011;28;20182;-77
2022/02/09 16:54:36;;;;;;;5.53;2.27;;;12.90;99.90;;;;;;5003747;28;20603;-76
2022/02/09 16:57:19;;;;;;;2.33;1.83;;;12.80;99.90;;;;;;4991949;28;21096;-75
2022/02/09 17:19:12;;;;;;;4.88;2.05;;;12.20;99.90;;;;;;5021861;28;20208;-75
2022/02/09 17:21:31;;;;;;;3.28;1.98;;;12.10;99.90;;;;;;5003567;28;20321;-76
2022/02/09 17:24:04;;;;;;;3.17;1.40;;;12.00;99.90;;;;;;4975532;28;20193;-75
2022/02/09 17:26:31;;;;;;;5.93;1.60;;;11.90;99.90;;;;;;4982060;28;20334;-76
2022/02/09 17:28:59;;;;;;;3.67;1.33;;;11.90;99.90;;;;;;4975465;28;20284;-76
2022/02/09 17:31:35;;;;;;;2.97;1.42;;;11.80;99.90;;;;;;5001512;28;20183;-76
2022/02/09 17:34:14;;;;;;;3.80;1.20;;;11.80;99.90;;;;;;4984073;28;20187;-76
2022/02/09 17:36:49;;;;;;;3.78;2.05;;;11.70;99.90;;;;;;5003331;28;20312;-76
2022/02/09 17:58:21;;;;;;;3.97;1.92;;;11.40;99.90;;;;;;5003011;28;20205;-76
2022/02/09 18:00:50;;;;;;;2.22;1.98;;;11.30;99.90;;;;;;5000695;28;20221;-76
2022/02/09 18:03:17;;;;;;;4.80;2.00;;;11.30;99.90;;;;;;5004079;28;20523;-75
2022/02/09 18:05:49;;;;;;;8.70;2.55;;;11.30;99.90;;;;;;5000467;28;20282;-76
2022/02/09 18:11:01;;;;;;;7.57;2.60;;;11.30;99.90;;;;;;5005440;28;20248;-74
2022/02/09 18:37:38;;;;;;;10.02;3.60;;;11.10;99.90;;;;;;4986289;28;20186;-75
2022/02/09 18:43:00;;;;;;;11.27;5.50;;;11.00;99.90;;;;;;4999957;28;20237;-74
2022/02/09 18:56:49;;;;;;;7.50;4.72;;;10.90;99.90;;;;;;4983611;28;20182;-74
2022/02/09 19:02:19;;;;;;;8.63;3.85;;;10.90;99.90;;;;;;4982387;28;20201;-75
2022/02/09 19:04:48;;;;;;;6.95;4.22;;;10.80;99.90;;;;;;5004791;28;20194;-75
2022/02/09 19:07:38;;;;;;;7.63;4.30;;;10.90;99.90;;;;;;5002941;28;20202;-75
2022/02/09 19:15:51;;;;;;;6.95;4.20;;;11.10;99.90;;;;;;5002729;28;20221;-75
2022/02/09 19:26:18;;;;;;;8.02;4.63;;;11.20;99.90;;;;;;4994783;28;20728;-75
2022/02/09 19:27:29;;;;;;;7.35;4.72;;;11.30;99.90;;;;;;5009611;28;20194;-76
2022/02/09 19:32:23;;;;;;;9.05;5.22;;;11.30;99.90;;;;;;5005114;28;20181;-77
2022/02/09 19:45:56;;;;;;;6.90;4.25;;;11.50;99.90;;;;;;4992563;28;20209;-77
2022/02/09 19:48:33;;;;;;;9.73;6.45;;;11.50;99.90;;;;;;5006305;28;20174;-75
2022/02/09 19:56:20;;;;;;;9.82;6.70;;;11.50;99.90;;;;;;4985417;28;20205;-76
2022/02/09 19:59:01;;;;;;;8.10;4.50;;;11.50;99.90;;;;;;4979340;28;20206;-76
2022/02/09 20:01:34;;;;;;;8.95;4.63;;;11.50;99.90;;;;;;5002510;28;20175;-76
2022/02/09 20:04:00;;;;;;;6.78;4.20;;;11.50;99.90;;;;;;4986124;28;20584;-76
2022/02/09 20:06:26;;;;;;;11.80;5.43;;;11.50;99.90;;;;;;5006370;28;20300;-76
2022/02/09 20:08:52;;;;;;;7.83;4.50;;;11.50;99.90;;;;;;5014335;28;20206;-76
2022/02/09 20:11:19;;;;;;;6.60;4.40;;;11.50;99.90;;;;;;4992248;28;20684;-76
2022/02/09 20:13:46;;;;;;;6.82;4.93;;;11.50;99.90;;;;;;4987407;28;20732;-76
2022/02/09 20:16:12;;;;;;;8.05;5.25;;;11.40;99.90;;;;;;4991177;28;20210;-76
2022/02/09 20:18:38;;;;;;;9.73;4.83;;;11.40;99.90;;;;;;5010451;28;20576;-76
2022/02/09 20:21:05;;;;;;;12.73;5.40;;;11.30;99.90;;;;;;5000088;28;20924;-77
2022/02/09 20:23:33;;;;;;;11.50;4.90;;;11.30;99.90;;;;;;5012137;28;20171;-75
2022/02/09 20:26:01;;;;;;;8.98;5.28;;;11.30;99.90;;;;;;5017199;28;20566;-79
2022/02/09 20:28:26;;;;;;;10.65;5.60;;;11.20;99.90;;;;;;5007577;28;20476;-76
2022/02/09 20:31:15;;;;;;;9.67;4.77;;;11.20;99.90;;;;;;4998963;28;20217;-78
2022/02/09 20:33:46;;;;;;;13.75;5.15;;;11.20;99.90;;;;;;4989677;28;20270;-77
2022/02/09 20:36:15;;;;;;;5.70;4.43;;;11.10;99.90;;;;;;5008862;28;20199;-77
2022/02/09 20:38:43;;;;;;;5.45;4.35;;;11.10;99.90;;;;;;4968952;28;20199;-77
2022/02/09 20:41:11;;;;;;;12.65;5.05;;;11.10;99.90;;;;;;4988165;28;20171;-77
2022/02/09 20:43:47;;;;;;;7.10;5.30;;;11.10;99.90;;;;;;4968872;28;20622;-77
2022/02/09 20:46:13;;;;;;;7.65;4.55;;;11.10;99.90;;;;;;5003950;28;20201;-77
2022/02/09 20:48:39;;;;;;;7.50;4.80;;;11.10;99.90;;;;;;5002264;28;20186;-77
2022/02/09 20:51:05;;;;;;;10.17;5.37;;;11.10;99.90;;;;;;5001810;28;20204;-77
2022/02/09 20:53:31;;;;;;;7.70;5.13;;;11.10;99.90;;;;;;5008677;28;20182;-77
2022/02/09 20:55:57;;;;;;;10.37;6.03;;;11.10;99.90;;;;;;5012278;28;20605;-77
2022/02/09 20:58:25;;;;;;;9.82;5.50;;;11.10;99.90;;;;;;4988189;28;20671;-77
2022/02/09 21:00:56;;;;;;;10.35;5.80;;;11.10;99.90;;;;;;5000700;28;20233;-77
2022/02/09 21:09:06;;;;;;;10.32;5.57;;;11.00;99.90;;;;;;5007227;28;20186;-77
2022/02/09 21:11:57;;;;;;;7.97;5.65;;;11.00;99.90;;;;;;5005549;28;20174;-77
2022/02/09 21:17:09;;;;;;;15.60;5.60;;;11.10;99.90;;;;;;5014851;28;20236;-77
2022/02/09 21:25:22;;;;;;;10.32;4.82;;;11.10;99.90;;;;;;5007339;28;20178;-77
2022/02/09 21:59:18;;;;;;;12.27;5.90;;;10.50;99.90;;;;;;5001882;28;20216;-77
2022/02/09 22:07:07;;;;;;;7.75;6.80;;;10.30;99.90;;;;;;5002027;28;20566;-77
2022/02/09 22:23:46;;;;;;;8.15;6.00;;;10.00;99.90;;;;;;5009231;28;20170;-77
2022/02/09 22:28:58;;;;;;;11.80;5.68;;;9.90;99.90;;;;;;5008466;28;20190;-77
2022/02/09 22:31:36;;;;;;;8.82;6.05;;;9.90;99.90;;;;;;5003178;28;20192;-77
2022/02/09 22:47:55;;;;;;;8.95;6.47;;;9.60;99.90;;;;;;4998585;28;20570;-77
2022/02/09 22:55:33;;;;;;;11.40;5.55;;;9.60;99.90;;;;;;5000111;28;20205;-77
2022/02/09 22:58:04;;;;;;;9.60;5.30;;;9.50;99.90;;;;;;5003191;28;20213;-78
2022/02/09 23:01:31;;;;;;;12.32;6.07;;;9.40;99.90;;;;;;5002871;28;20177;-78
2022/02/09 23:03:37;;;;;;;8.45;5.60;;;9.40;99.90;;;;;;4991163;28;20978;-78
2022/02/09 23:57:36;;;;;;;7.82;5.43;;;8.60;99.90;;;;;;5009912;28;20199;-77
